sensor_id;sensor_type;location;lat;lon;timestamp;P1;durP1;ratioP1;P2;durP2;ratioP2
54452;SDS011;40363;52.270;10.546;2023-05-19T00:02:25;5.28;;;3.08;;
54452;SDS011;40363;52.270;10.546;2023-05-19T00:04:53;9.88;;;3.13;;
54452;SDS011;40363;52.270;10.546;2023-05-19T00:07:20;8.88;;;2.90;;
54452;SDS011;40363;52.270;10.546;2023-05-19T00:09:55;8.05;;;3.38;;
54452;SDS011;40363;52.270;10.546;2023-05-19T00:12:22;5.25;;;2.95;;
54452;SDS011;40363;52.270;10.546;2023-05-19T00:14:49;6.03;;;3.00;;
54452;SDS011;40363;52.270;10.546;2023-05-19T00:17:17;5.22;;;3.05;;
54452;SDS011;40363;52.270;10.546;2023-05-19T00:19:44;5.30;;;2.88;;
54452;SDS011;40363;52.270;10.546;2023-05-19T00:22:13;7.63;;;2.67;;
54452;SDS011;40363;52.270;10.546;2023-05-19T00:24:40;6.25;;;2.80;;
54452;SDS011;40363;52.270;10.546;2023-05-19T00:27:06;4.43;;;2.88;;
54452;SDS011;40363;52.270;10.546;2023-05-19T00:29:33;6.53;;;2.97;;
54452;SDS011;40363;52.270;10.546;2023-05-19T00:32:00;5.68;;;2.50;;
54452;SDS011;40363;52.270;10.546;2023-05-19T00:34:26;6.10;;;2.90;;
54452;SDS011;40363;52.270;10.546;2023-05-19T00:36:53;5.65;;;2.70;;
54452;SDS011;40363;52.270;10.546;2023-05-19T00:39:21;6.75;;;2.83;;
54452;SDS011;40363;52.270;10.546;2023-05-19T00:41:48;9.90;;;3.45;;
54452;SDS011;40363;52.270;10.546;2023-05-19T00:44:14;6.47;;;2.47;;
54452;SDS011;40363;52.270;10.546;2023-05-19T00:46:41;6.85;;;2.75;;
54452;SDS011;40363;52.270;10.546;2023-05-19T00:49:07;7.70;;;2.53;;
54452;SDS011;40363;52.270;10.546;2023-05-19T00:51:34;7.80;;;2.42;;
54452;SDS011;40363;52.270;10.546;2023-05-19T00:54:01;5.80;;;2.58;;
54452;SDS011;40363;52.270;10.546;2023-05-19T00:56:31;7.15;;;2.80;;
54452;SDS011;40363;52.270;10.546;2023-05-19T00:58:58;6.47;;;2.50;;
54452;SDS011;40363;52.270;10.546;2023-05-19T01:01:26;6.15;;;2.40;;
54452;SDS011;40363;52.270;10.546;2023-05-19T01:03:52;3.15;;;2.33;;
54452;SDS011;40363;52.270;10.546;2023-05-19T01:06:20;4.72;;;2.65;;
54452;SDS011;40363;52.270;10.546;2023-05-19T01:08:47;5.45;;;2.30;;
54452;SDS011;40363;52.270;10.546;2023-05-19T01:11:13;4.90;;;2.75;;
54452;SDS011;40363;52.270;10.546;2023-05-19T01:13:41;5.68;;;2.33;;
54452;SDS011;40363;52.270;10.546;2023-05-19T01:16:10;5.05;;;2.20;;
54452;SDS011;40363;52.270;10.546;2023-05-19T01:18:42;8.82;;;2.70;;
54452;SDS011;40363;52.270;10.546;2023-05-19T01:24:22;3.22;;;2.45;;
54452;SDS011;40363;52.270;10.546;2023-05-19T01:27:09;3.53;;;2.50;;
54452;SDS011;40363;52.270;10.546;2023-05-19T01:30:11;6.60;;;2.50;;
54452;SDS011;40363;52.270;10.546;2023-05-19T01:32:57;5.60;;;2.10;;
54452;SDS011;40363;52.270;10.546;2023-05-19T01:35:26;5.72;;;2.05;;
54452;SDS011;40363;52.270;10.546;2023-05-19T01:37:54;4.32;;;2.58;;
54452;SDS011;40363;52.270;10.546;2023-05-19T01:40:22;9.45;;;2.65;;
54452;SDS011;40363;52.270;10.546;2023-05-19T01:42:51;7.88;;;2.85;;
54452;SDS011;40363;52.270;10.546;2023-05-19T01:45:20;8.57;;;3.40;;
54452;SDS011;40363;52.270;10.546;2023-05-19T01:47:49;9.15;;;2.40;;
54452;SDS011;40363;52.270;10.546;2023-05-19T01:50:16;5.50;;;1.88;;
54452;SDS011;40363;52.270;10.546;2023-05-19T01:52:43;6.20;;;3.05;;
54452;SDS011;40363;52.270;10.546;2023-05-19T01:55:10;6.30;;;2.45;;
54452;SDS011;40363;52.270;10.546;2023-05-19T01:57:39;7.32;;;2.72;;
54452;SDS011;40363;52.270;10.546;2023-05-19T02:00:13;7.43;;;2.92;;
54452;SDS011;40363;52.270;10.546;2023-05-19T02:02:47;11.07;;;3.08;;
54452;SDS011;40363;52.270;10.546;2023-05-19T02:05:21;5.53;;;2.35;;
54452;SDS011;40363;52.270;10.546;2023-05-19T02:07:56;3.72;;;2.25;;
54452;SDS011;40363;52.270;10.546;2023-05-19T02:10:27;4.72;;;2.22;;
54452;SDS011;40363;52.270;10.546;2023-05-19T02:12:57;7.32;;;2.40;;
54452;SDS011;40363;52.270;10.546;2023-05-19T02:15:27;5.85;;;2.75;;
54452;SDS011;40363;52.270;10.546;2023-05-19T02:18:00;5.05;;;2.22;;
54452;SDS011;40363;52.270;10.546;2023-05-19T02:20:28;8.98;;;3.15;;
54452;SDS011;40363;52.270;10.546;2023-05-19T02:22:55;6.07;;;2.78;;
54452;SDS011;40363;52.270;10.546;2023-05-19T02:25:21;6.65;;;2.08;;
54452;SDS011;40363;52.270;10.546;2023-05-19T02:27:49;4.95;;;2.13;;
54452;SDS011;40363;52.270;10.546;2023-05-19T02:30:16;5.78;;;2.25;;
54452;SDS011;40363;52.270;10.546;2023-05-19T02:32:43;13.45;;;2.67;;
54452;SDS011;40363;52.270;10.546;2023-05-19T02:35:12;6.18;;;2.30;;
54452;SDS011;40363;52.270;10.546;2023-05-19T02:37:38;6.90;;;2.72;;
54452;SDS011;40363;52.270;10.546;2023-05-19T02:40:05;3.05;;;2.03;;
54452;SDS011;40363;52.270;10.546;2023-05-19T02:42:33;6.00;;;2.20;;
54452;SDS011;40363;52.270;10.546;2023-05-19T02:44:59;3.72;;;1.90;;
54452;SDS011;40363;52.270;10.546;2023-05-19T02:47:26;7.70;;;2.78;;
54452;SDS011;40363;52.270;10.546;2023-05-19T02:49:52;4.47;;;2.63;;
54452;SDS011;40363;52.270;10.546;2023-05-19T02:52:21;6.78;;;2.63;;
54452;SDS011;40363;52.270;10.546;2023-05-19T02:54:47;4.20;;;2.53;;
54452;SDS011;40363;52.270;10.546;2023-05-19T02:57:14;6.03;;;2.28;;
54452;SDS011;40363;52.270;10.546;2023-05-19T02:59:40;10.50;;;3.05;;
54452;SDS011;40363;52.270;10.546;2023-05-19T03:02:07;4.43;;;2.85;;
54452;SDS011;40363;52.270;10.546;2023-05-19T03:04:34;3.80;;;2.53;;
54452;SDS011;40363;52.270;10.546;2023-05-19T03:07:06;6.05;;;2.60;;
54452;SDS011;40363;52.270;10.546;2023-05-19T03:09:35;5.13;;;2.20;;
54452;SDS011;40363;52.270;10.546;2023-05-19T03:12:02;6.75;;;2.75;;
54452;SDS011;40363;52.270;10.546;2023-05-19T03:14:30;4.72;;;2.55;;
54452;SDS011;40363;52.270;10.546;2023-05-19T03:16:57;4.35;;;2.47;;
54452;SDS011;40363;52.270;10.546;2023-05-19T03:19:25;5.13;;;2.60;;
54452;SDS011;40363;52.270;10.546;2023-05-19T03:21:51;7.30;;;2.60;;
54452;SDS011;40363;52.270;10.546;2023-05-19T03:24:20;4.20;;;2.17;;
54452;SDS011;40363;52.270;10.546;2023-05-19T03:26:48;5.22;;;2.17;;
54452;SDS011;40363;52.270;10.546;2023-05-19T03:29:15;5.18;;;2.17;;
54452;SDS011;40363;52.270;10.546;2023-05-19T03:31:42;5.45;;;2.75;;
54452;SDS011;40363;52.270;10.546;2023-05-19T03:34:08;7.63;;;2.58;;
54452;SDS011;40363;52.270;10.546;2023-05-19T03:36:35;4.00;;;2.20;;
54452;SDS011;40363;52.270;10.546;2023-05-19T03:39:03;6.60;;;2.45;;
54452;SDS011;40363;52.270;10.546;2023-05-19T03:41:29;8.20;;;2.60;;
54452;SDS011;40363;52.270;10.546;2023-05-19T03:43:57;9.10;;;3.42;;
54452;SDS011;40363;52.270;10.546;2023-05-19T03:46:24;4.75;;;2.78;;
54452;SDS011;40363;52.270;10.546;2023-05-19T03:48:51;7.97;;;2.80;;
54452;SDS011;40363;52.270;10.546;2023-05-19T03:51:17;6.78;;;2.40;;
54452;SDS011;40363;52.270;10.546;2023-05-19T03:53:44;7.63;;;2.78;;
54452;SDS011;40363;52.270;10.546;2023-05-19T03:56:11;3.75;;;2.33;;
54452;SDS011;40363;52.270;10.546;2023-05-19T03:58:37;7.18;;;2.90;;
54452;SDS011;40363;52.270;10.546;2023-05-19T04:01:06;4.50;;;2.72;;
54452;SDS011;40363;52.270;10.546;2023-05-19T04:03:33;6.18;;;2.95;;
54452;SDS011;40363;52.270;10.546;2023-05-19T04:05:59;5.82;;;3.15;;
54452;SDS011;40363;52.270;10.546;2023-05-19T04:08:26;6.65;;;3.05;;
54452;SDS011;40363;52.270;10.546;2023-05-19T04:10:52;5.28;;;3.30;;
54452;SDS011;40363;52.270;10.546;2023-05-19T04:13:19;8.10;;;3.65;;
54452;SDS011;40363;52.270;10.546;2023-05-19T04:15:46;5.85;;;2.90;;
54452;SDS011;40363;52.270;10.546;2023-05-19T04:18:14;5.00;;;2.45;;
54452;SDS011;40363;52.270;10.546;2023-05-19T04:20:41;10.25;;;4.28;;
54452;SDS011;40363;52.270;10.546;2023-05-19T04:23:07;6.88;;;3.30;;
54452;SDS011;40363;52.270;10.546;2023-05-19T04:25:34;4.60;;;2.65;;
54452;SDS011;40363;52.270;10.546;2023-05-19T04:28:01;7.63;;;3.03;;
54452;SDS011;40363;52.270;10.546;2023-05-19T04:30:28;6.43;;;2.80;;
54452;SDS011;40363;52.270;10.546;2023-05-19T04:32:55;6.78;;;3.25;;
54452;SDS011;40363;52.270;10.546;2023-05-19T04:35:23;6.50;;;3.03;;
54452;SDS011;40363;52.270;10.546;2023-05-19T04:37:50;4.93;;;2.50;;
54452;SDS011;40363;52.270;10.546;2023-05-19T04:40:18;5.78;;;2.88;;
54452;SDS011;40363;52.270;10.546;2023-05-19T04:42:45;7.00;;;2.72;;
54452;SDS011;40363;52.270;10.546;2023-05-19T04:45:14;5.90;;;2.78;;
54452;SDS011;40363;52.270;10.546;2023-05-19T04:47:40;5.05;;;2.47;;
54452;SDS011;40363;52.270;10.546;2023-05-19T04:50:07;4.10;;;2.60;;
54452;SDS011;40363;52.270;10.546;2023-05-19T04:52:36;4.68;;;2.50;;
54452;SDS011;40363;52.270;10.546;2023-05-19T04:55:03;6.63;;;2.65;;
54452;SDS011;40363;52.270;10.546;2023-05-19T04:57:30;5.53;;;2.97;;
54452;SDS011;40363;52.270;10.546;2023-05-19T04:59:56;8.35;;;2.38;;
54452;SDS011;40363;52.270;10.546;2023-05-19T05:02:24;4.40;;;2.72;;
54452;SDS011;40363;52.270;10.546;2023-05-19T05:04:51;5.38;;;2.55;;
54452;SDS011;40363;52.270;10.546;2023-05-19T05:07:18;4.47;;;3.30;;
54452;SDS011;40363;52.270;10.546;2023-05-19T05:09:46;5.28;;;2.60;;
54452;SDS011;40363;52.270;10.546;2023-05-19T05:12:13;7.25;;;3.28;;
54452;SDS011;40363;52.270;10.546;2023-05-19T05:14:41;5.50;;;3.22;;
54452;SDS011;40363;52.270;10.546;2023-05-19T05:17:09;6.22;;;2.30;;
54452;SDS011;40363;52.270;10.546;2023-05-19T05:19:37;9.43;;;3.03;;
54452;SDS011;40363;52.270;10.546;2023-05-19T05:22:04;5.25;;;2.28;;
54452;SDS011;40363;52.270;10.546;2023-05-19T05:24:31;7.10;;;2.85;;
54452;SDS011;40363;52.270;10.546;2023-05-19T05:27:00;3.83;;;2.40;;
54452;SDS011;40363;52.270;10.546;2023-05-19T05:29:26;8.68;;;2.78;;
54452;SDS011;40363;52.270;10.546;2023-05-19T05:31:53;7.03;;;2.60;;
54452;SDS011;40363;52.270;10.546;2023-05-19T05:34:19;8.18;;;2.85;;
54452;SDS011;40363;52.270;10.546;2023-05-19T05:36:46;4.60;;;2.25;;
54452;SDS011;40363;52.270;10.546;2023-05-19T05:39:12;4.97;;;2.08;;
54452;SDS011;40363;52.270;10.546;2023-05-19T05:41:39;2.92;;;2.08;;
54452;SDS011;40363;52.270;10.546;2023-05-19T05:44:07;4.72;;;2.67;;
54452;SDS011;40363;52.270;10.546;2023-05-19T05:46:34;9.50;;;2.75;;
54452;SDS011;40363;52.270;10.546;2023-05-19T05:49:00;6.38;;;2.00;;
54452;SDS011;40363;52.270;10.546;2023-05-19T05:51:27;4.28;;;2.03;;
54452;SDS011;40363;52.270;10.546;2023-05-19T05:53:56;5.13;;;2.67;;
54452;SDS011;40363;52.270;10.546;2023-05-19T05:56:25;6.70;;;2.35;;
54452;SDS011;40363;52.270;10.546;2023-05-19T05:58:52;7.55;;;2.67;;
54452;SDS011;40363;52.270;10.546;2023-05-19T06:01:20;2.75;;;2.40;;
54452;SDS011;40363;52.270;10.546;2023-05-19T06:03:47;8.43;;;2.13;;
54452;SDS011;40363;52.270;10.546;2023-05-19T06:06:14;7.25;;;2.00;;
54452;SDS011;40363;52.270;10.546;2023-05-19T06:08:41;5.22;;;2.30;;
54452;SDS011;40363;52.270;10.546;2023-05-19T06:11:07;3.60;;;2.03;;
54452;SDS011;40363;52.270;10.546;2023-05-19T06:13:34;5.22;;;2.00;;
54452;SDS011;40363;52.270;10.546;2023-05-19T06:16:01;7.85;;;2.70;;
54452;SDS011;40363;52.270;10.546;2023-05-19T06:18:29;3.75;;;1.63;;
54452;SDS011;40363;52.270;10.546;2023-05-19T06:20:56;7.85;;;2.28;;
54452;SDS011;40363;52.270;10.546;2023-05-19T06:23:23;2.45;;;1.30;;
54452;SDS011;40363;52.270;10.546;2023-05-19T06:25:51;4.10;;;1.60;;
54452;SDS011;40363;52.270;10.546;2023-05-19T06:28:17;9.57;;;1.90;;
54452;SDS011;40363;52.270;10.546;2023-05-19T06:30:44;6.90;;;2.85;;
54452;SDS011;40363;52.270;10.546;2023-05-19T06:33:10;4.47;;;1.50;;
54452;SDS011;40363;52.270;10.546;2023-05-19T06:35:38;3.60;;;2.13;;
54452;SDS011;40363;52.270;10.546;2023-05-19T06:38:05;4.75;;;1.55;;
54452;SDS011;40363;52.270;10.546;2023-05-19T06:40:31;6.00;;;1.80;;
54452;SDS011;40363;52.270;10.546;2023-05-19T06:42:58;7.90;;;1.90;;
54452;SDS011;40363;52.270;10.546;2023-05-19T06:45:24;6.20;;;2.15;;
54452;SDS011;40363;52.270;10.546;2023-05-19T06:47:51;6.68;;;1.77;;
54452;SDS011;40363;52.270;10.546;2023-05-19T06:50:18;4.25;;;1.60;;
54452;SDS011;40363;52.270;10.546;2023-05-19T06:52:46;7.22;;;1.60;;
54452;SDS011;40363;52.270;10.546;2023-05-19T06:55:13;5.70;;;1.85;;
54452;SDS011;40363;52.270;10.546;2023-05-19T06:57:39;2.88;;;1.42;;
54452;SDS011;40363;52.270;10.546;2023-05-19T07:00:06;5.40;;;2.67;;
54452;SDS011;40363;52.270;10.546;2023-05-19T07:02:35;5.13;;;2.17;;
54452;SDS011;40363;52.270;10.546;2023-05-19T07:05:02;5.60;;;2.40;;
54452;SDS011;40363;52.270;10.546;2023-05-19T07:07:29;3.22;;;1.70;;
54452;SDS011;40363;52.270;10.546;2023-05-19T07:09:57;7.18;;;2.25;;
54452;SDS011;40363;52.270;10.546;2023-05-19T07:12:23;4.10;;;1.63;;
54452;SDS011;40363;52.270;10.546;2023-05-19T07:14:50;5.88;;;1.70;;
54452;SDS011;40363;52.270;10.546;2023-05-19T07:17:17;8.13;;;2.30;;
54452;SDS011;40363;52.270;10.546;2023-05-19T07:19:43;5.78;;;2.35;;
54452;SDS011;40363;52.270;10.546;2023-05-19T07:22:10;4.50;;;1.60;;
54452;SDS011;40363;52.270;10.546;2023-05-19T07:24:36;3.63;;;1.60;;
54452;SDS011;40363;52.270;10.546;2023-05-19T07:27:05;4.22;;;1.90;;
54452;SDS011;40363;52.270;10.546;2023-05-19T07:29:31;2.95;;;1.50;;
54452;SDS011;40363;52.270;10.546;2023-05-19T07:31:58;4.82;;;1.60;;
54452;SDS011;40363;52.270;10.546;2023-05-19T07:34:25;5.55;;;1.50;;
54452;SDS011;40363;52.270;10.546;2023-05-19T07:36:51;4.22;;;1.80;;
54452;SDS011;40363;52.270;10.546;2023-05-19T07:39:18;5.15;;;1.75;;
54452;SDS011;40363;52.270;10.546;2023-05-19T07:41:45;5.25;;;1.50;;
54452;SDS011;40363;52.270;10.546;2023-05-19T07:44:18;10.35;;;1.50;;
54452;SDS011;40363;52.270;10.546;2023-05-19T07:46:44;5.78;;;1.60;;
54452;SDS011;40363;52.270;10.546;2023-05-19T07:49:11;2.83;;;1.48;;
54452;SDS011;40363;52.270;10.546;2023-05-19T07:51:38;3.50;;;1.70;;
54452;SDS011;40363;52.270;10.546;2023-05-19T07:54:05;5.50;;;1.60;;
54452;SDS011;40363;52.270;10.546;2023-05-19T07:56:33;6.13;;;1.90;;
54452;SDS011;40363;52.270;10.546;2023-05-19T07:58:59;4.15;;;1.40;;
54452;SDS011;40363;52.270;10.546;2023-05-19T08:01:28;5.10;;;2.47;;
54452;SDS011;40363;52.270;10.546;2023-05-19T08:03:54;4.07;;;1.35;;
54452;SDS011;40363;52.270;10.546;2023-05-19T08:06:21;7.03;;;1.60;;
54452;SDS011;40363;52.270;10.546;2023-05-19T08:08:49;6.28;;;1.50;;
54452;SDS011;40363;52.270;10.546;2023-05-19T08:11:16;5.95;;;2.03;;
54452;SDS011;40363;52.270;10.546;2023-05-19T08:13:42;3.35;;;1.42;;
54452;SDS011;40363;52.270;10.546;2023-05-19T08:16:11;3.63;;;1.33;;
54452;SDS011;40363;52.270;10.546;2023-05-19T08:18:39;8.43;;;1.90;;
54452;SDS011;40363;52.270;10.546;2023-05-19T08:21:06;3.22;;;1.40;;
54452;SDS011;40363;52.270;10.546;2023-05-19T08:23:33;5.88;;;1.50;;
54452;SDS011;40363;52.270;10.546;2023-05-19T08:26:01;1.85;;;1.17;;
54452;SDS011;40363;52.270;10.546;2023-05-19T08:28:27;3.53;;;1.70;;
54452;SDS011;40363;52.270;10.546;2023-05-19T08:30:54;4.18;;;1.30;;
54452;SDS011;40363;52.270;10.546;2023-05-19T08:33:20;2.83;;;1.27;;
54452;SDS011;40363;52.270;10.546;2023-05-19T08:35:49;5.20;;;1.30;;
54452;SDS011;40363;52.270;10.546;2023-05-19T08:38:16;4.55;;;1.60;;
54452;SDS011;40363;52.270;10.546;2023-05-19T08:40:42;5.65;;;1.20;;
54452;SDS011;40363;52.270;10.546;2023-05-19T08:43:12;4.93;;;1.58;;
54452;SDS011;40363;52.270;10.546;2023-05-19T08:45:38;8.13;;;1.30;;
54452;SDS011;40363;52.270;10.546;2023-05-19T08:48:10;4.25;;;1.55;;
54452;SDS011;40363;52.270;10.546;2023-05-19T08:50:39;6.00;;;2.03;;
54452;SDS011;40363;52.270;10.546;2023-05-19T08:53:10;3.47;;;1.20;;
54452;SDS011;40363;52.270;10.546;2023-05-19T08:55:41;2.85;;;1.10;;
54452;SDS011;40363;52.270;10.546;2023-05-19T08:58:15;5.78;;;0.95;;
54452;SDS011;40363;52.270;10.546;2023-05-19T09:00:44;2.88;;;0.90;;
54452;SDS011;40363;52.270;10.546;2023-05-19T09:03:11;5.13;;;1.70;;
54452;SDS011;40363;52.270;10.546;2023-05-19T09:05:39;2.85;;;1.20;;
54452;SDS011;40363;52.270;10.546;2023-05-19T09:08:06;2.22;;;1.35;;
54452;SDS011;40363;52.270;10.546;2023-05-19T09:10:34;4.53;;;1.50;;
54452;SDS011;40363;52.270;10.546;2023-05-19T09:13:01;3.90;;;1.20;;
54452;SDS011;40363;52.270;10.546;2023-05-19T09:15:27;2.80;;;1.00;;
54452;SDS011;40363;52.270;10.546;2023-05-19T09:18:02;4.30;;;1.40;;
54452;SDS011;40363;52.270;10.546;2023-05-19T09:20:34;2.38;;;1.35;;
54452;SDS011;40363;52.270;10.546;2023-05-19T09:23:02;5.57;;;1.35;;
54452;SDS011;40363;52.270;10.546;2023-05-19T09:25:31;5.65;;;1.92;;
54452;SDS011;40363;52.270;10.546;2023-05-19T09:27:57;4.40;;;1.27;;
54452;SDS011;40363;52.270;10.546;2023-05-19T09:30:24;5.32;;;1.60;;
54452;SDS011;40363;52.270;10.546;2023-05-19T09:32:51;5.28;;;1.17;;
54452;SDS011;40363;52.270;10.546;2023-05-19T09:35:17;7.35;;;1.35;;
54452;SDS011;40363;52.270;10.546;2023-05-19T09:37:45;3.00;;;1.20;;
54452;SDS011;40363;52.270;10.546;2023-05-19T09:40:13;4.20;;;1.73;;
54452;SDS011;40363;52.270;10.546;2023-05-19T09:42:41;2.90;;;1.50;;
54452;SDS011;40363;52.270;10.546;2023-05-19T09:45:09;3.17;;;1.00;;
54452;SDS011;40363;52.270;10.546;2023-05-19T09:47:36;3.78;;;1.33;;
54452;SDS011;40363;52.270;10.546;2023-05-19T09:50:03;3.60;;;1.40;;
54452;SDS011;40363;52.270;10.546;2023-05-19T09:52:33;4.38;;;1.10;;
54452;SDS011;40363;52.270;10.546;2023-05-19T09:55:01;4.32;;;1.17;;
54452;SDS011;40363;52.270;10.546;2023-05-19T09:57:32;1.63;;;0.80;;
54452;SDS011;40363;52.270;10.546;2023-05-19T10:00:02;2.70;;;1.05;;
54452;SDS011;40363;52.270;10.546;2023-05-19T10:02:42;5.75;;;1.13;;
54452;SDS011;40363;52.270;10.546;2023-05-19T10:05:11;1.65;;;1.00;;
54452;SDS011;40363;52.270;10.546;2023-05-19T10:07:40;4.20;;;1.35;;
54452;SDS011;40363;52.270;10.546;2023-05-19T10:10:10;3.22;;;1.00;;
54452;SDS011;40363;52.270;10.546;2023-05-19T10:12:38;3.25;;;1.13;;
54452;SDS011;40363;52.270;10.546;2023-05-19T10:15:08;1.60;;;0.90;;
54452;SDS011;40363;52.270;10.546;2023-05-19T10:17:37;2.13;;;1.38;;
54452;SDS011;40363;52.270;10.546;2023-05-19T10:20:05;1.48;;;0.80;;
54452;SDS011;40363;52.270;10.546;2023-05-19T10:22:35;1.52;;;1.00;;
54452;SDS011;40363;52.270;10.546;2023-05-19T10:25:02;1.60;;;1.10;;
54452;SDS011;40363;52.270;10.546;2023-05-19T10:27:30;2.22;;;0.93;;
54452;SDS011;40363;52.270;10.546;2023-05-19T10:30:01;5.80;;;2.08;;
54452;SDS011;40363;52.270;10.546;2023-05-19T10:32:34;3.00;;;0.77;;
54452;SDS011;40363;52.270;10.546;2023-05-19T10:35:23;3.67;;;1.10;;
54452;SDS011;40363;52.270;10.546;2023-05-19T10:38:04;2.22;;;1.30;;
54452;SDS011;40363;52.270;10.546;2023-05-19T10:40:39;5.32;;;1.00;;
54452;SDS011;40363;52.270;10.546;2023-05-19T10:43:19;2.65;;;1.05;;
54452;SDS011;40363;52.270;10.546;2023-05-19T10:45:51;3.30;;;1.23;;
54452;SDS011;40363;52.270;10.546;2023-05-19T10:48:20;2.85;;;0.95;;
54452;SDS011;40363;52.270;10.546;2023-05-19T10:50:47;3.53;;;1.02;;
54452;SDS011;40363;52.270;10.546;2023-05-19T10:53:15;1.90;;;1.17;;
54452;SDS011;40363;52.270;10.546;2023-05-19T10:55:43;3.47;;;0.90;;
54452;SDS011;40363;52.270;10.546;2023-05-19T10:58:11;3.42;;;0.93;;
54452;SDS011;40363;52.270;10.546;2023-05-19T11:00:38;2.80;;;1.30;;
54452;SDS011;40363;52.270;10.546;2023-05-19T11:03:11;1.77;;;1.20;;
54452;SDS011;40363;52.270;10.546;2023-05-19T11:05:40;1.90;;;0.93;;
54452;SDS011;40363;52.270;10.546;2023-05-19T11:08:10;1.95;;;1.10;;
54452;SDS011;40363;52.270;10.546;2023-05-19T11:10:37;3.38;;;1.02;;
54452;SDS011;40363;52.270;10.546;2023-05-19T11:13:04;0.98;;;0.60;;
54452;SDS011;40363;52.270;10.546;2023-05-19T11:15:33;1.73;;;0.70;;
54452;SDS011;40363;52.270;10.546;2023-05-19T11:18:00;4.80;;;0.90;;
54452;SDS011;40363;52.270;10.546;2023-05-19T11:20:28;1.90;;;1.23;;
54452;SDS011;40363;52.270;10.546;2023-05-19T11:23:06;1.85;;;0.77;;
54452;SDS011;40363;52.270;10.546;2023-05-19T11:25:40;3.28;;;0.73;;
54452;SDS011;40363;52.270;10.546;2023-05-19T11:28:09;1.67;;;1.10;;
54452;SDS011;40363;52.270;10.546;2023-05-19T11:30:37;0.85;;;0.70;;
54452;SDS011;40363;52.270;10.546;2023-05-19T11:33:05;2.83;;;0.80;;
54452;SDS011;40363;52.270;10.546;2023-05-19T11:35:32;3.10;;;0.88;;
54452;SDS011;40363;52.270;10.546;2023-05-19T11:38:08;1.92;;;1.02;;
54452;SDS011;40363;52.270;10.546;2023-05-19T11:40:36;2.13;;;0.82;;
54452;SDS011;40363;52.270;10.546;2023-05-19T11:43:02;1.50;;;0.95;;
54452;SDS011;40363;52.270;10.546;2023-05-19T11:45:30;1.55;;;0.68;;
54452;SDS011;40363;52.270;10.546;2023-05-19T11:47:57;2.75;;;0.80;;
54452;SDS011;40363;52.270;10.546;2023-05-19T11:50:24;2.05;;;0.80;;
54452;SDS011;40363;52.270;10.546;2023-05-19T11:52:51;1.58;;;0.90;;
54452;SDS011;40363;52.270;10.546;2023-05-19T11:55:20;1.60;;;0.80;;
54452;SDS011;40363;52.270;10.546;2023-05-19T11:57:50;1.70;;;0.80;;
54452;SDS011;40363;52.270;10.546;2023-05-19T12:00:22;2.45;;;0.93;;
54452;SDS011;40363;52.270;10.546;2023-05-19T12:02:50;3.08;;;1.02;;
54452;SDS011;40363;52.270;10.546;2023-05-19T12:05:17;1.92;;;0.68;;
54452;SDS011;40363;52.270;10.546;2023-05-19T12:07:43;0.63;;;0.57;;
54452;SDS011;40363;52.270;10.546;2023-05-19T12:10:13;3.58;;;0.90;;
54452;SDS011;40363;52.270;10.546;2023-05-19T12:12:41;3.85;;;0.60;;
54452;SDS011;40363;52.270;10.546;2023-05-19T12:15:10;1.60;;;0.77;;
54452;SDS011;40363;52.270;10.546;2023-05-19T12:17:36;2.97;;;0.70;;
54452;SDS011;40363;52.270;10.546;2023-05-19T12:20:03;1.45;;;0.80;;
54452;SDS011;40363;52.270;10.546;2023-05-19T12:22:31;2.75;;;0.82;;
54452;SDS011;40363;52.270;10.546;2023-05-19T12:24:59;2.05;;;0.80;;
54452;SDS011;40363;52.270;10.546;2023-05-19T12:27:26;3.03;;;0.93;;
54452;SDS011;40363;52.270;10.546;2023-05-19T12:29:54;1.73;;;0.65;;
54452;SDS011;40363;52.270;10.546;2023-05-19T12:32:22;1.00;;;0.75;;
54452;SDS011;40363;52.270;10.546;2023-05-19T12:34:49;1.88;;;0.88;;
54452;SDS011;40363;52.270;10.546;2023-05-19T12:37:16;1.23;;;0.80;;
54452;SDS011;40363;52.270;10.546;2023-05-19T12:39:43;1.40;;;0.63;;
54452;SDS011;40363;52.270;10.546;2023-05-19T12:42:10;2.58;;;0.80;;
54452;SDS011;40363;52.270;10.546;2023-05-19T12:44:37;3.22;;;0.80;;
54452;SDS011;40363;52.270;10.546;2023-05-19T12:47:05;2.15;;;0.95;;
54452;SDS011;40363;52.270;10.546;2023-05-19T12:49:33;3.58;;;0.98;;
54452;SDS011;40363;52.270;10.546;2023-05-19T12:52:00;2.97;;;1.13;;
54452;SDS011;40363;52.270;10.546;2023-05-19T12:54:27;4.70;;;1.23;;
54452;SDS011;40363;52.270;10.546;2023-05-19T12:56:57;3.10;;;0.90;;
54452;SDS011;40363;52.270;10.546;2023-05-19T12:59:24;2.08;;;1.17;;
54452;SDS011;40363;52.270;10.546;2023-05-19T13:01:54;1.85;;;1.00;;
54452;SDS011;40363;52.270;10.546;2023-05-19T13:04:23;2.03;;;0.80;;
54452;SDS011;40363;52.270;10.546;2023-05-19T13:06:50;1.80;;;1.05;;
54452;SDS011;40363;52.270;10.546;2023-05-19T13:09:17;2.53;;;1.02;;
54452;SDS011;40363;52.270;10.546;2023-05-19T13:14:14;2.75;;;0.80;;
54452;SDS011;40363;52.270;10.546;2023-05-19T13:16:42;1.90;;;0.82;;
54452;SDS011;40363;52.270;10.546;2023-05-19T13:19:10;1.13;;;0.80;;
54452;SDS011;40363;52.270;10.546;2023-05-19T13:21:39;3.05;;;1.45;;
54452;SDS011;40363;52.270;10.546;2023-05-19T13:24:06;6.15;;;1.00;;
54452;SDS011;40363;52.270;10.546;2023-05-19T13:26:32;4.18;;;0.90;;
54452;SDS011;40363;52.270;10.546;2023-05-19T13:28:59;1.98;;;0.85;;
54452;SDS011;40363;52.270;10.546;2023-05-19T13:31:26;3.10;;;1.15;;
54452;SDS011;40363;52.270;10.546;2023-05-19T13:33:52;2.15;;;0.90;;
54452;SDS011;40363;52.270;10.546;2023-05-19T13:36:19;1.10;;;0.85;;
54452;SDS011;40363;52.270;10.546;2023-05-19T13:38:47;3.95;;;0.90;;
54452;SDS011;40363;52.270;10.546;2023-05-19T13:41:13;2.28;;;1.08;;
54452;SDS011;40363;52.270;10.546;2023-05-19T13:43:40;3.88;;;1.52;;
54452;SDS011;40363;52.270;10.546;2023-05-19T13:46:06;1.35;;;0.93;;
54452;SDS011;40363;52.270;10.546;2023-05-19T13:48:33;2.13;;;0.70;;
54452;SDS011;40363;52.270;10.546;2023-05-19T13:51:00;1.63;;;0.85;;
54452;SDS011;40363;52.270;10.546;2023-05-19T13:53:26;1.85;;;0.82;;
54452;SDS011;40363;52.270;10.546;2023-05-19T13:55:56;1.52;;;0.80;;
54452;SDS011;40363;52.270;10.546;2023-05-19T13:58:23;2.60;;;1.02;;
54452;SDS011;40363;52.270;10.546;2023-05-19T14:00:49;1.45;;;0.70;;
54452;SDS011;40363;52.270;10.546;2023-05-19T14:03:18;2.03;;;0.77;;
54452;SDS011;40363;52.270;10.546;2023-05-19T14:05:46;4.75;;;0.88;;
54452;SDS011;40363;52.270;10.546;2023-05-19T14:08:12;3.05;;;0.90;;
54452;SDS011;40363;52.270;10.546;2023-05-19T14:10:40;2.40;;;0.80;;
54452;SDS011;40363;52.270;10.546;2023-05-19T14:13:08;2.75;;;0.90;;
54452;SDS011;40363;52.270;10.546;2023-05-19T14:15:36;2.45;;;1.02;;
54452;SDS011;40363;52.270;10.546;2023-05-19T14:18:03;1.20;;;0.70;;
54452;SDS011;40363;52.270;10.546;2023-05-19T14:20:30;3.17;;;1.17;;
54452;SDS011;40363;52.270;10.546;2023-05-19T14:22:56;2.97;;;1.20;;
54452;SDS011;40363;52.270;10.546;2023-05-19T14:25:23;3.40;;;0.90;;
54452;SDS011;40363;52.270;10.546;2023-05-19T14:27:49;2.25;;;0.73;;
54452;SDS011;40363;52.270;10.546;2023-05-19T14:30:17;3.45;;;1.45;;
54452;SDS011;40363;52.270;10.546;2023-05-19T14:32:45;2.42;;;0.93;;
54452;SDS011;40363;52.270;10.546;2023-05-19T14:35:11;5.40;;;1.08;;
54452;SDS011;40363;52.270;10.546;2023-05-19T14:37:38;15.52;;;1.45;;
54452;SDS011;40363;52.270;10.546;2023-05-19T14:40:04;4.97;;;1.10;;
54452;SDS011;40363;52.270;10.546;2023-05-19T14:42:32;1.58;;;0.90;;
54452;SDS011;40363;52.270;10.546;2023-05-19T14:44:58;4.70;;;1.00;;